createdAt,value
2023-04-01T00:00:06.646Z,22.28
2023-04-01T00:01:06.604Z,22.27
2023-04-01T00:02:06.658Z,22.27
2023-04-01T00:03:06.671Z,22.27
2023-04-01T00:04:06.596Z,22.28
2023-04-01T00:05:22.066Z,22.27
2023-04-01T00:06:06.465Z,22.25
2023-04-01T00:07:06.439Z,22.25
2023-04-01T00:08:06.421Z,22.27
2023-04-01T00:09:06.383Z,22.26
2023-04-01T00:10:06.353Z,22.27
2023-04-01T00:11:06.339Z,22.27
2023-04-01T00:12:06.320Z,22.27
2023-04-01T00:13:06.270Z,22.27
2023-04-01T00:14:06.252Z,22.28
2023-04-01T00:15:06.204Z,22.27
2023-04-01T00:17:06.214Z,22.27
2023-04-01T00:18:06.213Z,22.27
2023-04-01T00:19:06.081Z,22.27
2023-04-01T00:20:06.067Z,22.27
2023-04-01T00:21:06.016Z,22.26
2023-04-01T00:22:05.981Z,22.27
2023-04-01T00:23:05.942Z,22.26
2023-04-01T00:24:05.921Z,22.27
2023-04-01T00:25:05.938Z,22.26
2023-04-01T00:26:05.848Z,22.27
2023-04-01T00:27:05.837Z,22.27
2023-04-01T00:28:05.802Z,22.27
2023-04-01T00:29:05.797Z,22.27
2023-04-01T00:30:05.738Z,22.27
2023-04-01T00:31:05.759Z,22.27
2023-04-01T00:32:05.765Z,22.27
2023-04-01T00:33:05.694Z,22.27
2023-04-01T00:34:05.658Z,22.26
2023-04-01T00:35:05.603Z,22.27
2023-04-01T00:36:05.610Z,22.27
2023-04-01T00:37:05.540Z,22.27
2023-04-01T00:38:05.554Z,22.27
2023-04-01T00:39:05.591Z,22.27
2023-04-01T00:40:05.625Z,22.27
2023-04-01T00:41:05.652Z,22.26
2023-04-01T00:42:05.705Z,22.27
2023-04-01T00:43:05.710Z,22.26
2023-04-01T00:44:05.754Z,22.26
2023-04-01T00:45:05.799Z,22.26
2023-04-01T00:46:05.813Z,22.26
2023-04-01T00:47:05.891Z,22.26
2023-04-01T00:48:05.980Z,22.26
2023-04-01T00:49:05.916Z,22.26
2023-04-01T00:50:05.958Z,22.26
2023-04-01T00:51:05.978Z,22.26
2023-04-01T00:52:06.026Z,22.26
2023-04-01T00:53:05.995Z,22.26
2023-04-01T00:54:05.981Z,22.25
2023-04-01T00:55:05.940Z,22.26
2023-04-01T00:56:05.925Z,22.26
2023-04-01T00:57:05.951Z,22.26
2023-04-01T00:58:05.842Z,22.26
2023-04-01T00:59:05.837Z,22.26
2023-04-01T01:00:05.814Z,22.26
2023-04-01T01:01:05.816Z,22.26
2023-04-01T01:02:05.772Z,22.26
2023-04-01T01:03:05.811Z,22.25
2023-04-01T01:04:05.788Z,22.26
2023-04-01T01:05:05.811Z,22.25
2023-04-01T01:06:05.838Z,22.25
2023-04-01T01:07:05.883Z,22.26
2023-04-01T01:08:05.909Z,22.25
2023-04-01T01:09:05.928Z,22.25
2023-04-01T01:10:05.968Z,22.25
2023-04-01T01:11:06.006Z,22.25
2023-04-01T01:12:06.030Z,22.25
2023-04-01T01:13:06.050Z,22.25
2023-04-01T01:14:06.089Z,22.25
2023-04-01T01:15:06.129Z,22.25
2023-04-01T01:16:06.165Z,22.25
2023-04-01T01:17:06.175Z,22.25
2023-04-01T01:18:06.266Z,22.25
2023-04-01T01:19:06.240Z,22.25
2023-04-01T01:20:15.516Z,22.25
2023-04-01T01:21:06.268Z,22.25
2023-04-01T01:22:06.247Z,22.24
2023-04-01T01:23:06.200Z,22.25
2023-04-01T01:24:06.187Z,22.25
2023-04-01T01:25:06.161Z,22.25
2023-04-01T01:26:06.124Z,22.25
2023-04-01T01:27:06.091Z,22.25
2023-04-01T01:28:06.080Z,22.25
2023-04-01T01:29:06.022Z,22.25
2023-04-01T01:30:06.007Z,22.24
2023-04-01T01:31:05.988Z,22.25
2023-04-01T01:32:05.936Z,22.24
2023-04-01T01:33:05.994Z,22.25
2023-04-01T01:34:05.950Z,22.25
2023-04-01T01:35:05.986Z,22.26
2023-04-01T01:36:06.032Z,22.26
2023-04-01T01:37:06.034Z,22.25
2023-04-01T01:38:06.057Z,22.25
2023-04-01T01:39:06.088Z,22.25
2023-04-01T01:40:06.130Z,22.24
2023-04-01T01:41:06.158Z,22.24
2023-04-01T01:42:06.191Z,22.24
2023-04-01T01:43:06.246Z,22.24
2023-04-01T01:44:06.268Z,22.24
2023-04-01T01:45:06.325Z,22.24
2023-04-01T01:46:06.397Z,22.24
2023-04-01T01:47:06.375Z,22.24
2023-04-01T01:48:06.494Z,22.24
2023-04-01T01:49:06.429Z,22.24
2023-04-01T01:50:06.471Z,22.24
2023-04-01T01:51:06.494Z,22.24
2023-04-01T01:52:06.541Z,22.24
2023-04-01T01:53:06.523Z,22.23
2023-04-01T01:54:06.475Z,22.23
2023-04-01T01:55:06.459Z,22.23
2023-04-01T01:56:06.433Z,22.23
2023-04-01T01:57:06.461Z,22.24
2023-04-01T01:58:06.376Z,22.24
2023-04-01T01:59:06.338Z,22.24
2023-04-01T02:00:06.303Z,22.23
2023-04-01T02:01:06.316Z,22.24
2023-04-01T02:02:06.232Z,22.23
2023-04-01T02:03:06.254Z,22.23
2023-04-01T02:04:06.324Z,22.23
2023-04-01T02:05:06.287Z,22.23
2023-04-01T02:06:06.310Z,22.24
2023-04-01T02:07:06.366Z,22.24
2023-04-01T02:08:06.403Z,22.24
2023-04-01T02:09:06.444Z,22.23
2023-04-01T02:10:06.447Z,22.24
2023-04-01T02:11:06.500Z,22.24
2023-04-01T02:12:06.528Z,22.23
2023-04-01T02:13:06.571Z,22.23
2023-04-01T02:14:06.574Z,22.23
2023-04-01T02:15:06.646Z,22.23
2023-04-01T02:16:06.670Z,22.24
2023-04-01T02:17:06.709Z,22.23
2023-04-01T02:18:06.778Z,22.23
2023-04-01T02:19:06.733Z,22.23
2023-04-01T02:20:06.779Z,22.24
2023-04-01T02:21:06.787Z,22.23
2023-04-01T02:22:06.812Z,22.22
2023-04-01T02:23:06.793Z,22.22
2023-04-01T02:24:06.763Z,22.22
2023-04-01T02:25:06.720Z,22.23
2023-04-01T02:26:06.684Z,22.23
2023-04-01T02:27:06.662Z,22.22
2023-04-01T02:28:06.635Z,22.22
2023-04-01T02:29:06.611Z,22.22
2023-04-01T02:30:06.638Z,22.22
2023-04-01T02:31:06.552Z,22.22
2023-04-01T02:32:06.540Z,22.22
2023-04-01T02:33:06.714Z,22.23
2023-04-01T02:34:06.619Z,22.22
2023-04-01T02:35:06.665Z,22.22
2023-04-01T02:36:06.738Z,22.22
2023-04-01T02:37:06.741Z,22.22
2023-04-01T02:38:06.776Z,22.22
2023-04-01T02:39:06.817Z,22.22
2023-04-01T02:40:06.849Z,22.22
2023-04-01T02:41:06.889Z,22.22
2023-04-01T02:42:06.930Z,22.21
2023-04-01T02:43:06.972Z,22.22
2023-04-01T02:44:07.030Z,22.22
2023-04-01T02:45:07.044Z,22.22
2023-04-01T02:46:07.104Z,22.22
2023-04-01T02:47:07.233Z,22.22
2023-04-01T02:48:07.204Z,22.22
2023-04-01T02:49:07.211Z,22.23
2023-04-01T02:50:07.266Z,22.21
2023-04-01T02:51:07.287Z,22.21
2023-04-01T02:52:07.337Z,22.22
2023-04-01T02:53:07.371Z,22.21
2023-04-01T02:54:07.412Z,22.21
2023-04-01T02:55:07.455Z,22.22
2023-04-01T02:56:07.502Z,22.22
2023-04-01T02:57:07.600Z,22.21
2023-04-01T02:58:07.565Z,22.21
2023-04-01T02:59:07.593Z,22.21
2023-04-01T03:00:07.645Z,22.22
2023-04-01T03:01:07.733Z,22.21
2023-04-01T03:02:07.840Z,22.22
2023-04-01T03:03:08.005Z,22.21
2023-04-01T03:04:07.808Z,22.21
2023-04-01T03:05:07.836Z,22.21
2023-04-01T03:06:07.894Z,22.21
2023-04-01T03:07:07.929Z,22.20
2023-04-01T03:08:07.948Z,22.22
2023-04-01T03:09:07.992Z,22.21
2023-04-01T03:10:08.038Z,22.22
2023-04-01T03:11:08.079Z,22.21
2023-04-01T03:12:08.173Z,22.21
2023-04-01T03:13:08.073Z,22.21
2023-04-01T03:14:08.044Z,22.20
2023-04-01T03:15:10.890Z,22.21
2023-04-01T03:16:08.034Z,22.21
2023-04-01T03:17:07.963Z,22.21
2023-04-01T03:18:08.003Z,22.20
2023-04-01T03:19:07.918Z,22.21
2023-04-01T03:20:07.962Z,22.20
2023-04-01T03:21:07.875Z,22.20
2023-04-01T03:22:07.828Z,22.20
2023-04-01T03:23:07.807Z,22.20
2023-04-01T03:24:07.755Z,22.20
2023-04-01T03:25:07.735Z,22.20
2023-04-01T03:26:07.711Z,22.21
2023-04-01T03:27:07.665Z,22.20
2023-04-01T03:28:07.669Z,22.20
2023-04-01T03:29:07.690Z,22.21
2023-04-01T03:30:07.829Z,22.21
2023-04-01T03:31:07.820Z,22.21
2023-04-01T03:32:07.818Z,22.20
2023-04-01T03:33:07.929Z,22.20
2023-04-01T03:34:07.916Z,22.20
2023-04-01T03:35:07.925Z,22.20
2023-04-01T03:36:07.999Z,22.20
2023-04-01T03:37:07.992Z,22.21
2023-04-01T03:38:08.036Z,22.20
2023-04-01T03:39:08.009Z,22.19
2023-04-01T03:40:07.981Z,22.20
2023-04-01T03:41:07.964Z,22.20
2023-04-01T03:42:07.924Z,22.19
2023-04-01T03:43:07.935Z,22.19
2023-04-01T03:44:07.857Z,22.19
2023-04-01T03:45:07.836Z,22.20
2023-04-01T03:46:07.873Z,22.19
2023-04-01T03:47:07.794Z,22.19
2023-04-01T03:48:07.816Z,22.19
2023-04-01T03:49:07.832Z,22.19
2023-04-01T03:50:07.862Z,22.19
2023-04-01T03:51:07.917Z,22.19
2023-04-01T03:52:07.955Z,22.19
2023-04-01T03:53:07.975Z,22.19
2023-04-01T03:54:08.010Z,22.19
2023-04-01T03:55:08.055Z,22.19
2023-04-01T03:56:08.105Z,22.19
2023-04-01T03:57:08.193Z,22.19
2023-04-01T03:58:08.184Z,22.18
2023-04-01T03:59:08.233Z,22.18
2023-04-01T04:00:08.257Z,22.19
2023-04-01T04:01:08.289Z,22.18
2023-04-01T04:02:08.331Z,22.18
2023-04-01T04:03:08.473Z,22.18
2023-04-01T04:04:08.410Z,22.18
2023-04-01T04:05:08.460Z,22.18
2023-04-01T04:06:08.471Z,22.18
2023-04-01T04:07:08.510Z,22.18
2023-04-01T04:08:08.546Z,22.18
2023-04-01T04:09:08.601Z,22.18
2023-04-01T04:10:08.625Z,22.19
2023-04-01T04:11:08.665Z,22.18
2023-04-01T04:12:08.712Z,22.18
2023-04-01T04:13:08.743Z,22.17
2023-04-01T04:14:08.790Z,22.18
2023-04-01T04:15:08.838Z,22.19
2023-04-01T04:16:08.943Z,22.18
2023-04-01T04:17:08.913Z,22.18
2023-04-01T04:18:08.958Z,22.18
2023-04-01T04:19:09.010Z,22.18
2023-04-01T04:20:09.050Z,22.18
2023-04-01T04:21:09.063Z,22.18
2023-04-01T04:22:09.104Z,22.18
2023-04-01T04:23:09.154Z,22.18
2023-04-01T04:24:09.186Z,22.18
2023-04-01T04:25:09.240Z,22.17
2023-04-01T04:26:09.290Z,22.17
2023-04-01T04:27:09.328Z,22.17
2023-04-01T04:28:09.324Z,22.18
2023-04-01T04:29:09.346Z,22.18
2023-04-01T04:30:09.370Z,22.17
2023-04-01T04:31:09.444Z,22.18
2023-04-01T04:32:09.453Z,22.17
2023-04-01T04:33:09.540Z,22.18
2023-04-01T04:34:09.512Z,22.17
2023-04-01T04:35:09.543Z,22.17
2023-04-01T04:36:09.621Z,22.17
2023-04-01T04:37:09.644Z,22.17
2023-04-01T04:38:09.685Z,22.17
2023-04-01T04:39:09.700Z,22.17
2023-04-01T04:40:09.756Z,22.17
2023-04-01T04:41:09.783Z,22.17
2023-04-01T04:42:09.823Z,22.17
2023-04-01T04:43:09.858Z,22.17
2023-04-01T04:44:09.896Z,22.17
2023-04-01T04:45:09.950Z,22.17
2023-04-01T04:46:09.975Z,22.17
2023-04-01T04:47:10.104Z,22.17
2023-04-01T04:48:10.135Z,22.17
2023-04-01T04:49:10.076Z,22.17
2023-04-01T04:50:10.143Z,22.17
2023-04-01T04:51:10.152Z,22.17
2023-04-01T04:52:10.192Z,22.16
2023-04-01T04:53:10.234Z,22.17
2023-04-01T04:54:10.262Z,22.17
2023-04-01T04:55:10.320Z,22.16
2023-04-01T04:56:10.339Z,22.16
2023-04-01T04:57:10.504Z,22.16
2023-04-01T04:58:10.425Z,22.16
2023-04-01T04:59:10.471Z,22.16
2023-04-01T05:00:10.529Z,22.17
2023-04-01T05:01:10.642Z,22.17
2023-04-01T05:02:10.640Z,22.17
2023-04-01T05:03:10.741Z,22.17
2023-04-01T05:04:10.678Z,22.16
2023-04-01T05:05:10.717Z,22.16
2023-04-01T05:06:10.750Z,22.17
2023-04-01T05:07:10.800Z,22.16
2023-04-01T05:08:10.834Z,22.16
2023-04-01T05:09:10.881Z,22.17
2023-04-01T05:10:10.916Z,22.16
2023-04-01T05:11:13.633Z,22.16
2023-04-01T05:12:10.924Z,22.17
2023-04-01T05:13:10.887Z,22.16
2023-04-01T05:14:10.842Z,22.16
2023-04-01T05:15:10.813Z,22.16
2023-04-01T05:16:10.946Z,22.17
2023-04-01T05:17:10.805Z,22.16
2023-04-01T05:18:10.728Z,22.16
2023-04-01T05:19:10.704Z,22.17
2023-04-01T05:20:10.679Z,22.17
2023-04-01T05:21:10.651Z,22.16
2023-04-01T05:22:10.649Z,22.16
2023-04-01T05:23:10.618Z,22.17
2023-04-01T05:24:10.696Z,22.16
2023-04-01T05:25:10.708Z,22.17
2023-04-01T05:26:10.747Z,22.17
2023-04-01T05:27:10.817Z,22.16
2023-04-01T05:28:10.832Z,22.17
2023-04-01T05:29:10.861Z,22.18
2023-04-01T05:30:10.907Z,22.17
2023-04-01T05:31:11.074Z,22.17
2023-04-01T05:32:10.996Z,22.17
2023-04-01T05:33:11.035Z,22.17
2023-04-01T05:34:11.073Z,22.17
2023-04-01T05:35:11.106Z,22.18
2023-04-01T05:36:11.228Z,22.17
2023-04-01T05:37:11.196Z,22.18
2023-04-01T05:38:11.240Z,22.17
2023-04-01T05:39:11.251Z,22.17
2023-04-01T05:40:11.281Z,22.17
2023-04-01T05:41:11.331Z,22.17
2023-04-01T05:42:11.367Z,22.17
2023-04-01T05:43:11.441Z,22.17
2023-04-01T05:44:11.449Z,22.18
2023-04-01T05:45:11.490Z,22.18
2023-04-01T05:46:11.586Z,22.18
2023-04-01T05:47:11.597Z,22.17
2023-04-01T05:48:11.651Z,22.18
2023-04-01T05:49:11.649Z,22.17
2023-04-01T05:50:11.701Z,22.18
2023-04-01T05:51:11.729Z,22.18
2023-04-01T05:52:11.786Z,22.19
2023-04-01T05:53:11.817Z,22.18
2023-04-01T05:54:11.891Z,22.18
2023-04-01T05:55:11.883Z,22.18
2023-04-01T05:56:11.932Z,22.19
2023-04-01T05:57:12.009Z,22.18
2023-04-01T05:58:12.036Z,22.19
2023-04-01T05:59:12.051Z,22.19
2023-04-01T06:00:12.100Z,22.19
2023-04-01T06:01:15.805Z,22.19
2023-04-01T06:02:12.097Z,22.18
2023-04-01T06:03:12.111Z,22.19
2023-04-01T06:04:12.167Z,22.20
2023-04-01T06:05:12.063Z,22.19
2023-04-01T06:06:12.018Z,22.19
2023-04-01T06:07:11.982Z,22.20
2023-04-01T06:08:11.975Z,22.19
2023-04-01T06:09:11.947Z,22.20
2023-04-01T06:10:11.939Z,22.20
2023-04-01T06:11:11.920Z,22.20
2023-04-01T06:12:11.916Z,22.20
2023-04-01T06:13:11.909Z,22.21
2023-04-01T06:14:11.911Z,22.21
2023-04-01T06:15:11.866Z,22.20
2023-04-01T06:16:11.904Z,22.21
2023-04-01T06:17:11.825Z,22.21
2023-04-01T06:18:11.845Z,22.21
2023-04-01T06:19:11.791Z,22.21
2023-04-01T06:20:11.770Z,22.22
2023-04-01T06:21:11.740Z,22.21
2023-04-01T06:22:11.713Z,22.21
2023-04-01T06:23:11.733Z,22.22
2023-04-01T06:24:11.691Z,22.22
2023-04-01T06:25:11.686Z,22.23
2023-04-01T06:26:11.646Z,22.23
2023-04-01T06:27:11.620Z,22.23
2023-04-01T06:28:11.618Z,22.23
2023-04-01T06:29:11.586Z,22.23
2023-04-01T06:30:11.583Z,22.23
2023-04-01T06:31:11.631Z,22.24
2023-04-01T06:32:11.604Z,22.24
2023-04-01T06:33:11.636Z,22.24
2023-04-01T06:34:11.623Z,22.24
2023-04-01T06:35:11.602Z,22.24
2023-04-01T06:36:11.611Z,22.24
2023-04-01T06:37:11.556Z,22.24
2023-04-01T06:38:11.548Z,22.25
2023-04-01T06:39:11.524Z,22.25
2023-04-01T06:40:11.494Z,22.25
2023-04-01T06:41:11.464Z,22.26
2023-04-01T06:42:11.454Z,22.25
2023-04-01T06:43:11.454Z,22.25
2023-04-01T06:44:11.421Z,22.26
2023-04-01T06:45:11.389Z,22.26
2023-04-01T06:46:11.399Z,22.26
2023-04-01T06:47:11.347Z,22.27
2023-04-01T06:48:11.375Z,22.26
2023-04-01T06:49:11.313Z,22.27
2023-04-01T06:50:11.290Z,22.27
2023-04-01T06:51:11.264Z,22.27
2023-04-01T06:52:11.243Z,22.28
2023-04-01T06:53:11.215Z,22.28
2023-04-01T06:54:11.199Z,22.28
2023-04-01T06:55:11.188Z,22.29
2023-04-01T06:56:11.154Z,22.29
2023-04-01T06:57:11.180Z,22.30
2023-04-01T06:58:11.124Z,22.29
2023-04-01T06:59:11.079Z,22.30
2023-04-01T07:00:11.251Z,22.31
2023-04-01T07:01:11.034Z,22.31
2023-04-01T07:02:10.995Z,22.31
2023-04-01T07:03:11.030Z,22.31
2023-04-01T07:04:11.008Z,22.32
2023-04-01T07:05:11.121Z,22.31
2023-04-01T07:06:10.912Z,22.32
2023-04-01T07:07:10.881Z,22.33
2023-04-01T07:08:10.879Z,22.33
2023-04-01T07:09:10.832Z,22.35
2023-04-01T07:10:10.814Z,22.35
2023-04-01T07:11:10.781Z,22.36
2023-04-01T07:12:10.757Z,22.37
2023-04-01T07:13:10.750Z,22.38
2023-04-01T07:14:10.729Z,22.39
2023-04-01T07:15:10.735Z,22.40
2023-04-01T07:16:10.766Z,22.42
2023-04-01T07:17:10.801Z,22.43
2023-04-01T07:18:10.817Z,22.45
2023-04-01T07:19:10.823Z,22.46
2023-04-01T07:20:10.834Z,22.47
2023-04-01T07:21:10.858Z,22.49
2023-04-01T07:22:10.870Z,22.50
2023-04-01T07:23:10.903Z,22.52
2023-04-01T07:24:10.872Z,22.54
2023-04-01T07:25:10.825Z,22.55
2023-04-01T07:26:10.807Z,22.56
2023-04-01T07:27:10.779Z,22.58
2023-04-01T07:28:10.777Z,22.57
2023-04-01T07:29:10.737Z,22.56
2023-04-01T07:30:10.695Z,22.55
2023-04-01T07:31:10.709Z,22.56
2023-04-01T07:32:10.654Z,22.55
2023-04-01T07:33:10.704Z,22.55
2023-04-01T07:34:10.611Z,22.55
2023-04-01T07:35:10.619Z,22.55
2023-04-01T07:36:10.586Z,22.55
2023-04-01T07:37:10.524Z,22.56
2023-04-01T07:38:10.550Z,22.55
2023-04-01T07:39:10.518Z,22.56
2023-04-01T07:40:10.507Z,22.56
2023-04-01T07:41:10.509Z,22.56
2023-04-01T07:42:10.519Z,22.56
2023-04-01T07:43:10.528Z,22.57
2023-04-01T07:44:10.556Z,22.58
2023-04-01T07:45:10.546Z,22.60
2023-04-01T07:46:10.589Z,22.61
2023-04-01T07:47:10.558Z,22.65
2023-04-01T07:48:10.681Z,22.66
2023-04-01T07:49:10.583Z,22.69
2023-04-01T07:50:10.573Z,22.71
2023-04-01T07:51:10.574Z,22.73
2023-04-01T07:52:10.596Z,22.76
2023-04-01T07:53:10.565Z,22.78
2023-04-01T07:54:10.589Z,22.82
2023-04-01T07:55:10.564Z,22.84
2023-04-01T07:56:11.565Z,22.87
2023-04-01T07:57:10.583Z,22.89
2023-04-01T07:58:10.530Z,22.93
2023-04-01T07:59:10.518Z,22.95
2023-04-01T08:00:10.483Z,22.97
2023-04-01T08:01:10.460Z,22.96
2023-04-01T08:02:10.447Z,22.98
2023-04-01T08:03:10.492Z,23.00
2023-04-01T08:04:10.610Z,23.03
2023-04-01T08:05:10.365Z,23.04
2023-04-01T08:06:10.341Z,23.07
2023-04-01T08:07:10.316Z,23.09
2023-04-01T08:08:10.280Z,23.08
2023-04-01T08:09:10.268Z,23.09
2023-04-01T08:10:10.262Z,23.10
2023-04-01T08:11:10.202Z,23.11
2023-04-01T08:12:10.194Z,23.13
2023-04-01T08:13:10.155Z,23.15
2023-04-01T08:14:10.139Z,23.17
2023-04-01T08:15:10.096Z,23.19
2023-04-01T08:16:10.146Z,23.20
2023-04-01T08:17:10.047Z,23.23
2023-04-01T08:18:10.042Z,23.24
2023-04-01T08:19:10.060Z,23.25
2023-04-01T08:20:10.075Z,23.27
2023-04-01T08:21:10.084Z,23.28
2023-04-01T08:22:10.102Z,23.30
2023-04-01T08:23:10.140Z,23.30
2023-04-01T08:24:10.186Z,23.31
2023-04-01T08:25:10.215Z,23.34
2023-04-01T08:26:10.236Z,23.34
2023-04-01T08:27:10.270Z,23.35
2023-04-01T08:28:10.300Z,23.38
2023-04-01T08:29:10.319Z,23.40
2023-04-01T08:30:10.493Z,23.41
2023-04-01T08:31:10.368Z,23.42
2023-04-01T08:32:10.477Z,23.43
2023-04-01T08:33:10.488Z,23.44
2023-04-01T08:34:10.477Z,23.45
2023-04-01T08:35:10.502Z,23.45
2023-04-01T08:36:10.558Z,23.45
2023-04-01T08:37:10.561Z,23.45
2023-04-01T08:38:10.585Z,23.45
2023-04-01T08:39:10.613Z,23.46
2023-04-01T08:40:10.636Z,23.47
2023-04-01T08:41:10.661Z,23.48
2023-04-01T08:42:10.694Z,23.49
2023-04-01T08:43:10.709Z,23.51
2023-04-01T08:44:10.746Z,23.52
2023-04-01T08:45:12.501Z,23.53
2023-04-01T08:46:10.778Z,23.55
2023-04-01T08:47:10.707Z,23.56
2023-04-01T08:48:10.727Z,23.56
2023-04-01T08:49:10.737Z,23.58
2023-04-01T08:50:10.622Z,23.61
2023-04-01T08:51:10.559Z,23.63
2023-04-01T08:52:10.526Z,23.65
2023-04-01T08:53:10.528Z,23.67
2023-04-01T08:54:10.482Z,23.68
2023-04-01T08:55:10.449Z,23.68
2023-04-01T08:56:10.414Z,23.69
2023-04-01T08:57:10.432Z,23.71
2023-04-01T08:58:10.334Z,23.75
2023-04-01T08:59:10.303Z,23.74
2023-04-01T09:00:10.317Z,23.74
2023-04-01T09:01:10.238Z,23.76
2023-04-01T09:02:10.253Z,23.74
2023-04-01T09:03:10.279Z,23.73
2023-04-01T09:04:10.178Z,23.75
2023-04-01T09:05:10.112Z,23.73
2023-04-01T09:06:10.137Z,23.74
2023-04-01T09:07:12.209Z,23.77
2023-04-01T09:08:10.328Z,23.80
2023-04-01T09:09:10.353Z,23.83
2023-04-01T09:10:10.380Z,23.82
2023-04-01T09:11:10.380Z,23.81
2023-04-01T09:12:10.459Z,23.81
2023-04-01T09:13:10.419Z,23.84
2023-04-01T09:14:10.430Z,23.88
2023-04-01T09:15:10.446Z,23.88
2023-04-01T09:16:10.483Z,23.87
2023-04-01T09:17:10.485Z,23.85
2023-04-01T09:18:10.541Z,23.85
2023-04-01T09:19:11.131Z,23.86
2023-04-01T09:20:10.514Z,23.87
2023-04-01T09:21:10.518Z,23.91
2023-04-01T09:22:10.537Z,23.93
2023-04-01T09:23:10.555Z,23.94
2023-04-01T09:24:10.573Z,23.97
2023-04-01T09:25:10.576Z,24.00
2023-04-01T09:26:10.586Z,24.02
2023-04-01T09:27:10.581Z,24.02
2023-04-01T09:28:10.594Z,24.03
2023-04-01T09:29:10.597Z,24.02
2023-04-01T09:30:10.603Z,24.02
2023-04-01T09:31:10.613Z,24.02
2023-04-01T09:32:10.596Z,24.00
2023-04-01T09:33:10.618Z,23.99
2023-04-01T09:34:10.638Z,23.99
2023-04-01T09:35:10.639Z,23.99
2023-04-01T09:36:10.636Z,24.00
2023-04-01T09:37:10.620Z,24.01
2023-04-01T09:38:10.634Z,24.01
2023-04-01T09:39:10.635Z,24.01
2023-04-01T09:40:10.648Z,24.00
2023-04-01T09:41:10.653Z,24.04
2023-04-01T09:42:10.659Z,24.03
2023-04-01T09:43:10.664Z,24.02
2023-04-01T09:44:10.674Z,24.01
2023-04-01T09:45:10.668Z,24.00
2023-04-01T09:46:10.705Z,23.99
2023-04-01T09:47:10.685Z,23.99
2023-04-01T09:48:10.758Z,23.99
2023-04-01T09:49:10.692Z,23.98
2023-04-01T09:50:10.708Z,23.98
2023-04-01T09:51:10.708Z,23.97
2023-04-01T09:52:10.711Z,23.98
2023-04-01T09:53:10.717Z,24.00
2023-04-01T09:54:10.726Z,24.00
2023-04-01T09:55:10.738Z,24.01
2023-04-01T09:56:10.716Z,24.06
2023-04-01T09:57:10.750Z,24.08
2023-04-01T09:58:10.701Z,24.08
2023-04-01T09:59:10.689Z,24.10
2023-04-01T10:00:10.700Z,24.10
2023-04-01T10:01:10.679Z,24.10
2023-04-01T10:02:10.750Z,24.09
2023-04-01T10:03:10.706Z,24.13
2023-04-01T10:04:10.670Z,24.17
2023-04-01T10:05:10.685Z,24.16
2023-04-01T10:06:10.749Z,24.14
2023-04-01T10:07:10.625Z,24.14
2023-04-01T10:08:10.612Z,24.14
2023-04-01T10:09:10.581Z,24.15
2023-04-01T10:10:10.543Z,24.17
2023-04-01T10:11:10.493Z,24.17
2023-04-01T10:12:10.461Z,24.19
2023-04-01T10:13:10.437Z,24.21
2023-04-01T10:14:10.401Z,24.25
2023-04-01T10:15:10.361Z,24.25
2023-04-01T10:16:10.336Z,24.24
2023-04-01T10:17:10.277Z,24.22
2023-04-01T10:18:10.256Z,24.20
2023-04-01T10:19:10.197Z,24.19
2023-04-01T10:20:10.175Z,24.18
2023-04-01T10:21:10.121Z,24.18
2023-04-01T10:22:10.078Z,24.21
2023-04-01T10:23:10.029Z,24.23
2023-04-01T10:24:10.016Z,24.27
2023-04-01T10:25:09.974Z,24.31
2023-04-01T10:26:09.914Z,24.33
2023-04-01T10:27:09.873Z,24.37
2023-04-01T10:28:09.847Z,24.38
2023-04-01T10:29:09.791Z,24.40
2023-04-01T10:30:09.756Z,24.38
2023-04-01T10:31:09.731Z,24.37
2023-04-01T10:32:09.913Z,24.42
2023-04-01T10:33:09.666Z,24.44
2023-04-01T10:34:09.592Z,24.43
2023-04-01T10:35:09.561Z,24.41
2023-04-01T10:36:09.591Z,24.40
2023-04-01T10:37:09.466Z,24.41
2023-04-01T10:38:09.431Z,24.39
2023-04-01T10:39:09.379Z,24.42
2023-04-01T10:40:09.365Z,24.47
2023-04-01T10:41:09.296Z,24.51
2023-04-01T10:42:09.271Z,24.55
2023-04-01T10:43:09.220Z,24.58
2023-04-01T10:44:09.188Z,24.61
2023-04-01T10:45:09.133Z,24.64
2023-04-01T10:46:09.139Z,24.66
2023-04-01T10:47:09.044Z,24.68
2023-04-01T10:48:09.127Z,24.65
2023-04-01T10:49:08.968Z,24.63
2023-04-01T10:50:08.937Z,24.61
2023-04-01T10:51:08.889Z,24.63
2023-04-01T10:52:08.840Z,24.68
2023-04-01T10:53:08.797Z,24.71
2023-04-01T10:54:08.760Z,24.72
2023-04-01T10:55:08.721Z,24.74
2023-04-01T10:56:08.706Z,24.76
2023-04-01T10:57:08.765Z,24.80
2023-04-01T10:58:08.734Z,24.82
2023-04-01T10:59:08.790Z,24.85
2023-04-01T11:00:08.753Z,24.84
2023-04-01T11:01:08.866Z,24.87
2023-04-01T11:02:12.061Z,24.91
2023-04-01T11:03:08.882Z,24.94
2023-04-01T11:04:08.727Z,24.97
2023-04-01T11:05:08.676Z,24.99
2023-04-01T11:06:08.648Z,24.98
2023-04-01T11:07:08.576Z,24.99
2023-04-01T11:08:08.533Z,24.99
2023-04-01T11:09:08.489Z,24.99
2023-04-01T11:10:08.441Z,25.04
2023-04-01T11:11:08.425Z,25.09
2023-04-01T11:12:08.362Z,25.13
2023-04-01T11:13:08.301Z,25.13
2023-04-01T11:14:08.264Z,25.09
2023-04-01T11:15:08.225Z,25.09
2023-04-01T11:16:08.246Z,25.08
2023-04-01T11:17:08.128Z,25.08
2023-04-01T11:18:08.091Z,25.12
2023-04-01T11:19:08.031Z,25.11
2023-04-01T11:20:07.967Z,25.08
2023-04-01T11:21:07.936Z,25.06
2023-04-01T11:22:07.871Z,25.04
2023-04-01T11:23:07.887Z,25.04
2023-04-01T11:24:07.935Z,25.02
2023-04-01T11:25:07.934Z,25.01
2023-04-01T11:26:07.963Z,25.05
2023-04-01T11:27:08.000Z,25.03
2023-04-01T11:28:07.985Z,25.02
2023-04-01T11:29:07.999Z,24.99
2023-04-01T11:30:08.007Z,24.99
2023-04-01T11:31:08.039Z,24.99
2023-04-01T11:32:08.047Z,24.98
2023-04-01T11:33:08.145Z,24.98
2023-04-01T11:34:08.111Z,24.97
2023-04-01T11:35:08.093Z,24.97
2023-04-01T11:36:08.144Z,24.97
2023-04-01T11:37:08.143Z,24.96
2023-04-01T11:38:08.165Z,24.96
2023-04-01T11:39:08.182Z,24.95
2023-04-01T11:40:08.200Z,24.94
2023-04-01T11:41:08.234Z,24.93
2023-04-01T11:42:08.243Z,24.93
2023-04-01T11:43:08.260Z,24.93
2023-04-01T11:44:08.285Z,24.94
2023-04-01T11:45:08.317Z,24.94
2023-04-01T11:46:08.379Z,24.93
2023-04-01T11:47:08.344Z,24.93
2023-04-01T11:48:08.397Z,24.92
2023-04-01T11:49:08.391Z,24.93
2023-04-01T11:50:08.417Z,24.91
2023-04-01T11:51:08.436Z,24.91
2023-04-01T11:52:08.450Z,24.91
2023-04-01T11:53:08.484Z,24.91
2023-04-01T11:54:08.416Z,24.90
2023-04-01T11:55:08.388Z,24.89
2023-04-01T11:56:08.351Z,24.90
2023-04-01T11:57:08.332Z,24.90
2023-04-01T11:58:08.250Z,24.89
2023-04-01T11:59:08.221Z,24.88
2023-04-01T12:00:08.148Z,24.89
2023-04-01T12:01:08.129Z,24.89
2023-04-01T12:02:08.105Z,24.87
2023-04-01T12:03:08.077Z,24.87
2023-04-01T12:04:08.170Z,24.86
2023-04-01T12:05:07.940Z,24.86
2023-04-01T12:06:07.896Z,24.85
2023-04-01T12:07:07.906Z,24.84
2023-04-01T12:08:07.945Z,24.84
2023-04-01T12:09:07.890Z,24.82
2023-04-01T12:10:07.860Z,24.82
2023-04-01T12:11:07.821Z,24.82
2023-04-01T12:12:07.760Z,24.81
2023-04-01T12:13:07.718Z,24.81
2023-04-01T12:14:07.670Z,24.80
2023-04-01T12:15:07.619Z,24.79
2023-04-01T12:16:07.636Z,24.79
2023-04-01T12:17:07.549Z,24.79
2023-04-01T12:18:07.618Z,24.80
2023-04-01T12:19:07.611Z,24.79
2023-04-01T12:20:07.634Z,24.79
2023-04-01T12:21:07.641Z,24.78
2023-04-01T12:22:07.652Z,24.78
2023-04-01T12:23:07.672Z,24.79
2023-04-01T12:24:07.647Z,24.78
2023-04-01T12:25:07.680Z,24.78
2023-04-01T12:26:07.711Z,24.78
2023-04-01T12:27:07.736Z,24.77
2023-04-01T12:28:07.768Z,24.77
2023-04-01T12:29:07.789Z,24.80
2023-04-01T12:30:07.804Z,24.79
2023-04-01T12:31:07.889Z,24.79
2023-04-01T12:32:07.917Z,24.79
2023-04-01T12:33:07.914Z,24.79
2023-04-01T12:34:07.923Z,24.79
2023-04-01T12:35:07.944Z,24.79
2023-04-01T12:36:08.006Z,24.80
2023-04-01T12:37:07.997Z,24.80
2023-04-01T12:38:08.024Z,24.82
2023-04-01T12:39:08.059Z,24.86
2023-04-01T12:40:08.077Z,24.89
2023-04-01T12:41:08.112Z,24.92
2023-04-01T12:42:08.119Z,24.95
2023-04-01T12:43:08.126Z,24.98
2023-04-01T12:44:08.142Z,25.01
2023-04-01T12:45:08.175Z,25.03
2023-04-01T12:46:08.235Z,25.05
2023-04-01T12:47:08.207Z,25.08
2023-04-01T12:48:08.209Z,25.09
2023-04-01T12:49:08.201Z,25.07
2023-04-01T12:50:08.248Z,25.08
2023-04-01T12:51:08.203Z,25.08
2023-04-01T12:52:08.234Z,25.06
2023-04-01T12:53:08.210Z,25.08